createdAt,value
2023-02-19T00:03:25.952Z,5.09
2023-02-19T00:08:31.930Z,5.70
2023-02-19T00:13:40.524Z,5.62
2023-02-19T00:18:44.975Z,5.69
2023-02-19T00:24:04.179Z,5.60
2023-02-19T00:29:08.090Z,5.65
2023-02-19T00:34:12.812Z,4.87
2023-02-19T00:39:19.022Z,5.66
2023-02-19T00:44:32.404Z,5.16
2023-02-19T00:49:37.014Z,4.90
2023-02-19T00:54:40.422Z,5.55
2023-02-19T00:59:43.788Z,4.97
2023-02-19T01:04:47.360Z,4.90
2023-02-19T01:09:51.167Z,4.50
2023-02-19T01:14:55.924Z,4.07
2023-02-19T01:19:59.455Z,5.38
2023-02-19T01:25:13.347Z,5.32
2023-02-19T01:30:16.865Z,4.92
2023-02-19T01:35:23.890Z,4.48
2023-02-19T01:40:27.710Z,5.63
2023-02-19T01:45:34.866Z,5.49
2023-02-19T01:50:46.360Z,5.21
2023-02-19T01:55:53.316Z,4.72
2023-02-19T02:00:56.976Z,5.14
2023-02-19T02:06:08.801Z,5.33
2023-02-19T02:11:18.223Z,4.94
2023-02-19T02:16:55.431Z,5.08
2023-02-19T02:22:01.099Z,5.45
2023-02-19T02:27:23.566Z,5.52
2023-02-19T02:32:39.817Z,5.64
2023-02-19T02:37:46.630Z,5.54
2023-02-19T02:42:49.244Z,5.29
2023-02-19T02:48:01.542Z,5.39
2023-02-19T02:53:28.175Z,4.47
2023-02-19T02:58:33.038Z,5.15
2023-02-19T03:03:37.965Z,5.42
2023-02-19T03:08:56.673Z,5.74
2023-02-19T03:14:26.215Z,5.67
2023-02-19T03:19:33.936Z,5.34
2023-02-19T03:25:00.310Z,5.73
2023-02-19T03:30:09.340Z,5.63
2023-02-19T03:35:19.739Z,5.80
2023-02-19T03:40:27.380Z,5.46
2023-02-19T03:45:56.536Z,5.12
2023-02-19T03:51:31.695Z,5.60
2023-02-19T03:56:52.369Z,5.03
2023-02-19T04:02:01.652Z,5.72
2023-02-19T04:07:04.651Z,4.37
2023-02-19T04:12:08.472Z,4.59
2023-02-19T04:17:20.668Z,5.54
2023-02-19T04:22:24.040Z,5.40
2023-02-19T04:27:26.741Z,5.64
2023-02-19T04:32:29.353Z,5.09
2023-02-19T04:37:31.917Z,4.47
2023-02-19T04:42:34.646Z,5.42
2023-02-19T04:47:37.291Z,5.18
2023-02-19T04:52:40.324Z,5.10
2023-02-19T04:57:43.118Z,4.71
2023-02-19T05:02:45.826Z,4.44
2023-02-19T05:07:58.576Z,4.52
2023-02-19T05:13:01.293Z,5.79
2023-02-19T05:18:04.425Z,5.45
2023-02-19T05:23:06.994Z,5.55
2023-02-19T05:28:19.329Z,5.46
2023-02-19T05:33:25.848Z,5.93
2023-02-19T05:38:28.833Z,5.52
2023-02-19T05:43:31.415Z,5.65
2023-02-19T05:48:34.480Z,5.36
2023-02-19T05:53:37.481Z,5.01
2023-02-19T05:58:41.411Z,5.67
2023-02-19T06:03:44.040Z,5.53
2023-02-19T06:08:47.171Z,5.97
2023-02-19T06:13:52.748Z,5.88
2023-02-19T06:18:55.761Z,5.14
2023-02-19T06:24:10.076Z,5.91
2023-02-19T06:29:12.721Z,5.89
2023-02-19T06:34:25.954Z,5.68
2023-02-19T06:39:39.464Z,5.66
2023-02-19T06:44:42.089Z,5.12
2023-02-19T06:49:44.772Z,5.93
2023-02-19T06:54:52.382Z,5.33
2023-02-19T07:00:05.525Z,6.17
2023-02-19T07:05:09.061Z,5.88
2023-02-19T07:10:11.653Z,5.76
2023-02-19T07:15:14.400Z,5.94
2023-02-19T07:20:17.001Z,6.07
2023-02-19T07:25:19.690Z,5.15
2023-02-19T07:30:22.348Z,5.58
2023-02-19T07:35:24.989Z,6.14
2023-02-19T07:40:28.523Z,5.21
2023-02-19T07:45:31.161Z,5.81
2023-02-19T07:50:33.760Z,5.21
2023-02-19T07:55:36.622Z,6.39
2023-02-19T08:00:39.471Z,6.20
2023-02-19T08:05:43.601Z,5.80
2023-02-19T08:11:06.172Z,5.86
2023-02-19T08:16:18.444Z,6.36
2023-02-19T08:21:22.927Z,6.32
2023-02-19T08:26:25.667Z,6.21
2023-02-19T08:31:28.644Z,5.98
2023-02-19T08:36:36.063Z,6.38
2023-02-19T08:41:38.759Z,6.61
2023-02-19T08:46:41.335Z,5.64
2023-02-19T08:51:54.020Z,5.93
2023-02-19T08:56:56.724Z,6.16
2023-02-19T09:01:59.951Z,6.79
2023-02-19T09:07:02.653Z,6.56
2023-02-19T09:12:07.117Z,6.32
2023-02-19T09:17:19.955Z,6.74
2023-02-19T09:22:22.717Z,6.68
2023-02-19T09:27:25.356Z,5.91
2023-02-19T09:32:37.967Z,6.40
2023-02-19T09:37:40.648Z,6.69
2023-02-19T09:42:44.278Z,6.60
2023-02-19T09:47:58.983Z,7.13
2023-02-19T09:53:05.550Z,7.09
2023-02-19T09:58:30.900Z,7.23
2023-02-19T10:03:36.272Z,7.08
2023-02-19T10:08:42.113Z,7.04
2023-02-19T10:14:10.046Z,7.08
2023-02-19T10:19:22.914Z,7.02
2023-02-19T10:24:29.803Z,7.03
2023-02-19T10:29:33.561Z,6.32
2023-02-19T10:34:36.421Z,6.60
2023-02-19T10:39:50.763Z,7.42
2023-02-19T10:44:59.614Z,7.35
2023-02-19T10:50:04.769Z,7.26
2023-02-19T10:55:15.421Z,7.54
2023-02-19T11:00:31.247Z,7.59
2023-02-19T11:05:34.378Z,7.36
2023-02-19T11:10:43.260Z,7.62
2023-02-19T11:15:53.873Z,7.37
2023-02-19T11:21:02.512Z,7.60
2023-02-19T11:26:20.234Z,7.72
2023-02-19T11:31:26.451Z,7.73
2023-02-19T11:36:36.226Z,7.70
2023-02-19T11:42:22.145Z,7.67
2023-02-19T11:47:43.580Z,7.66
2023-02-19T11:53:04.733Z,7.71
2023-02-19T11:58:16.848Z,7.87
2023-02-19T12:03:25.592Z,7.90
2023-02-19T12:08:58.649Z,7.63
2023-02-19T12:14:31.513Z,7.05
2023-02-19T12:19:55.713Z,7.90
2023-02-19T12:25:18.090Z,7.61
2023-02-19T12:31:03.042Z,7.81
2023-02-19T12:36:34.250Z,7.81
2023-02-19T12:41:49.205Z,7.73
2023-02-19T12:46:59.196Z,7.85
2023-02-19T12:52:29.631Z,7.89
2023-02-19T12:57:39.066Z,7.55
2023-02-19T13:03:01.135Z,7.68
2023-02-19T13:09:04.721Z,7.25
2023-02-19T13:14:35.026Z,8.03
2023-02-19T13:19:39.213Z,7.82
2023-02-19T13:24:43.929Z,7.99
2023-02-19T13:29:54.161Z,7.76
2023-02-19T13:35:02.832Z,7.95
2023-02-19T13:40:19.685Z,7.69
2023-02-19T13:45:44.264Z,7.10
2023-02-19T13:50:47.985Z,7.51
2023-02-19T13:55:53.523Z,8.04
2023-02-19T14:00:56.393Z,7.02
2023-02-19T14:06:06.952Z,7.62
2023-02-19T14:11:42.062Z,7.82
2023-02-19T14:17:05.385Z,8.07
2023-02-19T14:22:51.039Z,8.07
2023-02-19T14:28:11.556Z,8.16
2023-02-19T14:33:18.372Z,7.84
2023-02-19T14:38:31.255Z,7.58
2023-02-19T14:43:36.258Z,7.34
2023-02-19T14:48:43.355Z,8.18
2023-02-19T14:53:46.627Z,7.33
2023-02-19T14:59:08.531Z,8.06
2023-02-19T15:04:27.642Z,7.04
2023-02-19T15:09:38.619Z,7.84
2023-02-19T15:14:41.479Z,7.29
2023-02-19T15:19:46.032Z,8.00
2023-02-19T15:24:49.533Z,7.74
2023-02-19T15:30:02.494Z,7.42
2023-02-19T15:35:06.065Z,7.70
2023-02-19T15:40:10.047Z,7.62
2023-02-19T15:45:37.623Z,7.44
2023-02-19T15:50:44.919Z,7.57
2023-02-19T15:55:58.642Z,8.00
2023-02-19T16:01:05.619Z,7.99
2023-02-19T16:06:18.967Z,7.82
2023-02-19T16:11:24.977Z,7.91
2023-02-19T16:16:32.146Z,6.88
2023-02-19T16:21:35.288Z,7.12
2023-02-19T16:26:45.985Z,7.75
2023-02-19T16:31:55.767Z,7.71
2023-02-19T16:36:58.767Z,7.69
2023-02-19T16:42:03.220Z,7.93
2023-02-19T16:47:14.827Z,7.68
2023-02-19T16:52:17.835Z,7.60
2023-02-19T16:57:21.475Z,7.53
2023-02-19T17:02:25.873Z,7.27
2023-02-19T17:07:28.586Z,7.25
2023-02-19T17:12:31.335Z,7.29
2023-02-19T17:17:34.283Z,7.19
2023-02-19T17:22:36.887Z,7.31
2023-02-19T17:27:39.585Z,7.35
2023-02-19T17:32:42.188Z,7.05
2023-02-19T17:37:44.792Z,7.25
2023-02-19T17:42:47.359Z,7.30
2023-02-19T17:47:51.494Z,7.30
2023-02-19T17:52:54.270Z,7.05
2023-02-19T17:57:57.788Z,7.27
2023-02-19T18:03:00.447Z,7.00
2023-02-19T18:08:03.250Z,6.84
2023-02-19T18:13:06.645Z,7.10
2023-02-19T18:18:10.588Z,6.24
2023-02-19T18:23:14.334Z,7.25
2023-02-19T18:28:18.232Z,7.05
2023-02-19T18:33:21.474Z,6.41
2023-02-19T18:38:24.143Z,7.08
2023-02-19T18:43:26.921Z,6.71
2023-02-19T18:48:29.564Z,6.69
2023-02-19T18:53:32.123Z,7.01
2023-02-19T18:58:34.742Z,7.12
2023-02-19T19:03:37.369Z,6.72
2023-02-19T19:08:39.978Z,7.04
2023-02-19T19:13:48.851Z,5.92
2023-02-19T19:18:51.672Z,6.05
2023-02-19T19:23:54.398Z,6.93
2023-02-19T19:29:00.693Z,6.87
2023-02-19T19:34:03.777Z,5.86
2023-02-19T19:39:06.880Z,6.59
2023-02-19T19:44:10.442Z,6.61
2023-02-19T19:49:18.947Z,6.72
2023-02-19T19:54:21.583Z,5.65
2023-02-19T19:59:24.302Z,6.49
2023-02-19T20:04:27.029Z,5.71
2023-02-19T20:09:29.895Z,5.96
2023-02-19T20:14:32.478Z,5.81
2023-02-19T20:19:35.207Z,5.91
2023-02-19T20:24:37.864Z,6.57
2023-02-19T20:29:40.495Z,6.43
2023-02-19T20:34:43.108Z,5.69
2023-02-19T20:39:45.880Z,6.50
2023-02-19T20:44:48.612Z,6.36
2023-02-19T20:49:52.498Z,6.79
2023-02-19T20:54:57.273Z,6.31
2023-02-19T20:59:59.879Z,6.08
2023-02-19T21:05:02.846Z,6.54
2023-02-19T21:10:11.439Z,6.53
2023-02-19T21:15:15.589Z,6.31
2023-02-19T21:20:21.074Z,6.65
2023-02-19T21:25:23.797Z,6.38
2023-02-19T21:30:26.419Z,6.29
2023-02-19T21:35:29.921Z,5.99
2023-02-19T21:40:33.747Z,6.14
2023-02-19T21:45:36.446Z,6.26
2023-02-19T21:50:39.358Z,6.28
2023-02-19T21:55:56.640Z,6.04
2023-02-19T22:01:01.027Z,6.23
2023-02-19T22:06:03.788Z,5.96
2023-02-19T22:11:06.332Z,5.21
2023-02-19T22:16:09.335Z,6.41
2023-02-19T22:21:12.162Z,6.48
2023-02-19T22:26:28.786Z,6.42
2023-02-19T22:31:33.634Z,6.19
2023-02-19T22:36:38.078Z,6.40
2023-02-19T22:41:43.590Z,6.09
2023-02-19T22:46:57.021Z,6.33
2023-02-19T22:52:09.348Z,6.12
2023-02-19T22:57:11.989Z,5.37
2023-02-19T23:02:24.595Z,6.31
2023-02-19T23:07:27.336Z,5.53
2023-02-19T23:12:29.938Z,6.30
2023-02-19T23:17:32.548Z,5.85
2023-02-19T23:22:35.977Z,5.87
2023-02-19T23:27:38.647Z,6.20
2023-02-19T23:32:41.252Z,5.93
2023-02-19T23:37:54.052Z,6.22
2023-02-19T23:42:57.666Z,5.83
2023-02-19T23:48:00.398Z,5.91
2023-02-19T23:53:05.076Z,6.31
2023-02-19T23:58:07.727Z,5.69
